Time;durP1;ratioP1;P1;durP2;ratioP2;P2;SDS_P1;SDS_P2;PMS_P1;PMS_P2;Temp;Humidity;BMP_temperature;BMP_pressure;BME280_temperature;BME280_humidity;BME280_pressure;Samples;Min_cycle;Max_cycle;Signal;HPM_P1;HPM_P2
2023/05/29 08:25:31;;;;;;;82.53;10.68;;;;;;;;;;5027055;27;20745;-57
2023/05/29 08:27:57;;;;;;;50.95;7.38;;;;;;;;;;4995336;28;20033;-54
2023/05/29 08:30:22;;;;;;;37.05;5.93;;;;;;;;;;4994985;28;20033;-55
2023/05/29 08:32:47;;;;;;;42.53;6.70;;;;;;;;;;5013294;28;20022;-56
2023/05/29 08:35:12;;;;;;;45.73;6.60;;;;;;;;;;5015722;28;21011;-54
2023/05/29 08:37:38;;;;;;;75.57;9.80;;;;;;;;;;5012233;28;20650;-53
2023/05/29 08:40:08;;;;;;;52.33;7.23;;;;;;;;;;5014044;28;20056;-56
2023/05/29 08:42:35;;;;;;;74.17;10.20;;;;;;;;;;5013289;28;20053;-54
2023/05/29 08:45:03;;;;;;;53.03;7.28;;;;;;;;;;5001527;28;20427;-54
2023/05/29 08:47:30;;;;;;;84.90;11.48;;;;;;;;;;5012314;28;20112;-57
2023/05/29 08:49:56;;;;;;;54.10;7.72;;;;;;;;;;5015847;28;20055;-56
2023/05/29 08:52:24;;;;;;;56.40;7.93;;;;;;;;;;5013567;28;20455;-55
2023/05/29 08:54:49;;;;;;;62.65;8.05;;;;;;;;;;5014588;28;20493;-54
2023/05/29 08:57:15;;;;;;;53.08;7.57;;;;;;;;;;5014943;28;20040;-55
2023/05/29 08:59:42;;;;;;;100.53;12.23;;;;;;;;;;5009621;28;20026;-55
2023/05/29 09:02:07;;;;;;;70.20;9.05;;;;;;;;;;5011203;28;20041;-53
2023/05/29 09:04:33;;;;;;;82.70;10.20;;;;;;;;;;5012919;28;20728;-57
2023/05/29 09:06:59;;;;;;;56.90;7.45;;;;;;;;;;5014810;28;20424;-53
2023/05/29 09:09:27;;;;;;;56.95;7.63;;;;;;;;;;5011933;28;20442;-53
2023/05/29 09:11:53;;;;;;;44.85;6.50;;;;;;;;;;5014162;28;20138;-53
2023/05/29 09:14:34;;;;;;;64.95;8.30;;;;;;;;;;5018586;28;20029;-53
2023/05/29 09:17:00;;;;;;;37.90;5.97;;;;;;;;;;5018518;28;20119;-57
2023/05/29 09:19:25;;;;;;;27.77;4.72;;;;;;;;;;5019183;28;20539;-53
2023/05/29 09:21:51;;;;;;;35.50;5.75;;;;;;;;;;5018299;28;20518;-54
2023/05/29 09:24:16;;;;;;;42.17;6.05;;;;;;;;;;5018411;28;20033;-55
2023/05/29 09:26:48;;;;;;;66.50;8.20;;;;;;;;;;5017041;28;20172;-55
2023/05/29 09:29:15;;;;;;;52.05;7.30;;;;;;;;;;5017482;28;20021;-57
2023/05/29 09:31:46;;;;;;;79.95;10.40;;;;;;;;;;5016340;28;20038;-56
2023/05/29 09:34:11;;;;;;;42.28;6.13;;;;;;;;;;5017002;28;20087;-58
2023/05/29 09:36:37;;;;;;;65.57;9.07;;;;;;;;;;5004031;28;20042;-59
2023/05/29 09:39:03;;;;;;;37.53;5.72;;;;;;;;;;5006689;28;20515;-56
2023/05/29 09:41:30;;;;;;;54.33;7.28;;;;;;;;;;5001617;28;20036;-55
2023/05/29 09:43:56;;;;;;;34.88;5.45;;;;;;;;;;5005718;28;20025;-55
2023/05/29 09:46:21;;;;;;;32.65;4.93;;;;;;;;;;5003350;28;20219;-57
2023/05/29 09:48:47;;;;;;;32.70;5.50;;;;;;;;;;5003329;28;20029;-56
2023/05/29 09:51:22;;;;;;;18.48;3.90;;;;;;;;;;5003124;28;20834;-57
2023/05/29 09:53:50;;;;;;;45.33;6.30;;;;;;;;;;5004765;28;20491;-55
2023/05/29 09:56:17;;;;;;;38.58;5.95;;;;;;;;;;5012393;28;20044;-57
2023/05/29 09:58:45;;;;;;;76.30;9.85;;;;;;;;;;5004250;28;20021;-58
2023/05/29 10:01:12;;;;;;;40.17;5.75;;;;;;;;;;5002981;28;20548;-57
2023/05/29 10:03:37;;;;;;;72.43;9.45;;;;;;;;;;5002356;28;20107;-58
2023/05/29 10:06:05;;;;;;;38.43;5.83;;;;;;;;;;5004180;28;20132;-56
2023/05/29 10:08:31;;;;;;;49.13;6.90;;;;;;;;;;5003620;28;20550;-59
2023/05/29 10:11:04;;;;;;;45.45;6.18;;;;;;;;;;5000090;28;20057;-57
2023/05/29 10:13:31;;;;;;;31.23;4.90;;;;;;;;;;5009721;28;20060;-56
2023/05/29 10:15:58;;;;;;;38.65;5.55;;;;;;;;;;5004776;28;20182;-55
2023/05/29 10:18:29;;;;;;;47.95;6.72;;;;;;;;;;5004384;28;20104;-55
2023/05/29 10:20:57;;;;;;;49.28;6.13;;;;;;;;;;5004166;28;20127;-56
2023/05/29 10:23:23;;;;;;;50.95;6.88;;;;;;;;;;5004050;28;20132;-57
2023/05/29 10:25:56;;;;;;;39.47;5.93;;;;;;;;;;5003136;28;20033;-57
2023/05/29 10:28:23;;;;;;;34.40;4.85;;;;;;;;;;5005047;28;20024;-54
2023/05/29 10:30:57;;;;;;;32.38;5.00;;;;;;;;;;5001978;28;21476;-55
2023/05/29 10:33:31;;;;;;;44.72;5.80;;;;;;;;;;5002746;28;20079;-54
2023/05/29 10:36:18;;;;;;;50.20;6.80;;;;;;;;;;5005184;28;20041;-56
2023/05/29 10:38:46;;;;;;;82.60;9.32;;;;;;;;;;5001203;28;20014;-57
2023/05/29 10:41:23;;;;;;;47.90;6.82;;;;;;;;;;5002523;28;20603;-57
2023/05/29 10:43:49;;;;;;;42.47;5.70;;;;;;;;;;5002684;28;20370;-55
2023/05/29 10:46:14;;;;;;;30.92;4.82;;;;;;;;;;5004882;28;20806;-58
2023/05/29 10:48:40;;;;;;;68.10;8.45;;;;;;;;;;5001669;28;20100;-58
2023/05/29 10:51:09;;;;;;;40.30;5.63;;;;;;;;;;5002602;28;20389;-57
2023/05/29 10:53:39;;;;;;;60.08;7.78;;;;;;;;;;5003516;28;20029;-58
2023/05/29 10:56:08;;;;;;;51.92;6.60;;;;;;;;;;5001780;28;20113;-55
2023/05/29 10:58:33;;;;;;;52.80;6.63;;;;;;;;;;5003044;28;20044;-57
2023/05/29 11:00:59;;;;;;;39.93;5.63;;;;;;;;;;5003897;28;20033;-56
2023/05/29 11:03:30;;;;;;;49.05;6.60;;;;;;;;;;5003493;28;20030;-55
2023/05/29 11:05:55;;;;;;;;;;;;;;;;;;5003814;28;20120;-55
2023/05/29 11:08:28;;;;;;;53.67;6.85;;;;;;;;;;5003750;28;20631;-54
2023/05/29 11:10:53;;;;;;;32.63;4.90;;;;;;;;;;4999868;28;20064;-56
2023/05/29 11:13:34;;;;;;;34.53;5.07;;;;;;;;;;5003893;28;20108;-55
2023/05/29 11:16:06;;;;;;;42.97;6.27;;;;;;;;;;5003070;28;20428;-56
2023/05/29 11:18:31;;;;;;;39.47;5.32;;;;;;;;;;5002621;28;20954;-54
2023/05/29 11:21:04;;;;;;;36.33;5.17;;;;;;;;;;5001024;28;20551;-58
2023/05/29 11:23:31;;;;;;;35.83;5.05;;;;;;;;;;5004022;28;20293;-57
2023/05/29 11:25:57;;;;;;;47.35;6.13;;;;;;;;;;4999292;28;20747;-56
2023/05/29 11:28:22;;;;;;;42.85;5.50;;;;;;;;;;5002644;28;20056;-56
2023/05/29 11:30:48;;;;;;;84.72;9.27;;;;;;;;;;5000340;28;20030;-57
2023/05/29 11:33:23;;;;;;;51.70;6.68;;;;;;;;;;5000583;28;20028;-54
2023/05/29 11:35:50;;;;;;;92.13;9.50;;;;;;;;;;5001936;28;20567;-57
2023/05/29 11:38:15;;;;;;;70.45;7.50;;;;;;;;;;5001804;28;20029;-58
2023/05/29 11:40:40;;;;;;;97.00;10.70;;;;;;;;;;4999579;28;20030;-56
2023/05/29 11:43:06;;;;;;;58.00;6.75;;;;;;;;;;5002999;28;20434;-54
2023/05/29 11:45:32;;;;;;;60.75;6.53;;;;;;;;;;5002856;28;20073;-58
2023/05/29 11:47:58;;;;;;;50.25;6.13;;;;;;;;;;5001959;28;20052;-59
2023/05/29 11:50:27;;;;;;;62.63;7.13;;;;;;;;;;5002289;28;20489;-58
2023/05/29 11:52:53;;;;;;;84.40;9.13;;;;;;;;;;5000272;28;20017;-58
2023/05/29 11:55:19;;;;;;;55.03;6.05;;;;;;;;;;5002886;28;20024;-57
2023/05/29 11:57:45;;;;;;;77.03;8.63;;;;;;;;;;5002447;28;20025;-55
2023/05/29 12:00:15;;;;;;;45.60;5.32;;;;;;;;;;5000560;28;20022;-55
2023/05/29 12:02:42;;;;;;;87.05;9.70;;;;;;;;;;5000974;28;20033;-56
2023/05/29 12:05:07;;;;;;;46.25;5.85;;;;;;;;;;5002437;28;20021;-57
2023/05/29 12:07:33;;;;;;;43.75;5.20;;;;;;;;;;5003067;28;20123;-55
2023/05/29 12:10:10;;;;;;;43.35;5.55;;;;;;;;;;5001601;28;20045;-56
2023/05/29 12:12:36;;;;;;;55.17;6.10;;;;;;;;;;5001136;28;20406;-56
2023/05/29 12:15:05;;;;;;;59.20;6.63;;;;;;;;;;5010608;28;20468;-56
2023/05/29 12:17:30;;;;;;;50.25;6.38;;;;;;;;;;5002021;28;20261;-58
2023/05/29 12:19:55;;;;;;;81.80;8.25;;;;;;;;;;5001973;28;20091;-56
2023/05/29 12:22:31;;;;;;;54.93;6.53;;;;;;;;;;5002036;28;20115;-58
2023/05/29 12:25:02;;;;;;;55.42;6.05;;;;;;;;;;5000350;28;20466;-56
2023/05/29 12:27:28;;;;;;;49.20;5.50;;;;;;;;;;5002054;28;20067;-56
2023/05/29 12:30:00;;;;;;;92.53;9.45;;;;;;;;;;5001531;28;20273;-54
2023/05/29 12:32:33;;;;;;;71.38;7.00;;;;;;;;;;5000640;28;20091;-56
2023/05/29 12:34:59;;;;;;;62.38;6.78;;;;;;;;;;5002322;28;20026;-57
2023/05/29 12:37:25;;;;;;;77.25;7.78;;;;;;;;;;5000681;28;20041;-56
2023/05/29 12:40:09;;;;;;;104.15;10.23;;;;;;;;;;4999608;28;20108;-54
2023/05/29 12:42:37;;;;;;;59.42;6.30;;;;;;;;;;5002112;28;20064;-56
2023/05/29 12:45:06;;;;;;;72.32;7.63;;;;;;;;;;5002168;28;20088;-56
2023/05/29 12:47:31;;;;;;;61.03;6.50;;;;;;;;;;5000954;28;20030;-54
2023/05/29 12:49:57;;;;;;;77.25;7.55;;;;;;;;;;5001697;28;21483;-57
2023/05/29 12:52:23;;;;;;;73.20;7.47;;;;;;;;;;5001462;28;20033;-55
2023/05/29 12:54:48;;;;;;;98.72;10.48;;;;;;;;;;4999806;28;20799;-58
2023/05/29 12:57:13;;;;;;;52.37;6.03;;;;;;;;;;5001510;28;20038;-57
2023/05/29 12:59:40;;;;;;;72.97;7.60;;;;;;;;;;5000952;28;20862;-56
2023/05/29 13:02:07;;;;;;;68.10;7.03;;;;;;;;;;5000772;28;20049;-60
2023/05/29 13:04:32;;;;;;;64.80;6.70;;;;;;;;;;5003997;28;20168;-58
2023/05/29 13:06:57;;;;;;;89.23;8.20;;;;;;;;;;4998317;28;20682;-55
2023/05/29 13:09:23;;;;;;;73.95;7.38;;;;;;;;;;5001762;28;20030;-53
2023/05/29 13:11:48;;;;;;;127.63;20.07;;;;;;;;;;5001169;28;20796;-53
2023/05/29 13:14:13;;;;;;;96.63;22.73;;;;;;;;;;5006124;28;20259;-54
2023/05/29 13:16:38;;;;;;;62.73;7.00;;;;;;;;;;5004683;28;20041;-54
2023/05/29 13:19:03;;;;;;;81.83;9.43;;;;;;;;;;5004882;28;20272;-55
2023/05/29 13:21:29;;;;;;;57.07;6.53;;;;;;;;;;5007176;28;20038;-56
2023/05/29 13:23:54;;;;;;;94.43;10.32;;;;;;;;;;5003852;28;20307;-55
2023/05/29 13:26:21;;;;;;;64.15;7.07;;;;;;;;;;5003831;28;20025;-55
2023/05/29 13:28:47;;;;;;;96.43;9.27;;;;;;;;;;5005852;28;20474;-56
2023/05/29 13:31:12;;;;;;;66.10;6.82;;;;;;;;;;5005919;28;20625;-54
2023/05/29 13:33:37;;;;;;;59.23;6.53;;;;;;;;;;5006412;28;20813;-55
2023/05/29 13:36:02;;;;;;;51.93;6.27;;;;;;;;;;5004677;28;20026;-54
2023/05/29 13:38:28;;;;;;;72.22;7.47;;;;;;;;;;5003642;28;20829;-54
2023/05/29 13:40:53;;;;;;;104.93;10.63;;;;;;;;;;5002575;28;20649;-57
2023/05/29 13:43:18;;;;;;;70.03;7.40;;;;;;;;;;5004017;28;20076;-56
2023/05/29 13:45:43;;;;;;;84.43;8.43;;;;;;;;;;5002463;28;20322;-54
2023/05/29 13:48:09;;;;;;;68.90;7.03;;;;;;;;;;5005330;28;20307;-54
2023/05/29 13:50:34;;;;;;;56.60;5.97;;;;;;;;;;5004461;28;20289;-54
2023/05/29 13:53:00;;;;;;;110.93;11.03;;;;;;;;;;5003699;28;20121;-53
2023/05/29 13:55:25;;;;;;;60.35;6.60;;;;;;;;;;5003657;28;20783;-57
2023/05/29 13:57:50;;;;;;;107.27;10.10;;;;;;;;;;5003984;28;20106;-55
2023/05/29 14:00:15;;;;;;;70.03;7.00;;;;;;;;;;5003755;28;20155;-53
2023/05/29 14:02:41;;;;;;;64.18;6.93;;;;;;;;;;5006095;28;20464;-55
2023/05/29 14:05:06;;;;;;;69.78;7.18;;;;;;;;;;5002288;28;20022;-53
2023/05/29 14:07:32;;;;;;;68.10;7.13;;;;;;;;;;5004538;28;20021;-55
2023/05/29 14:09:57;;;;;;;115.20;11.43;;;;;;;;;;4999986;28;20029;-52
2023/05/29 14:12:22;;;;;;;75.90;7.80;;;;;;;;;;5002921;28;20269;-55
2023/05/29 14:14:48;;;;;;;100.10;9.93;;;;;;;;;;5002594;28;20042;-55
2023/05/29 14:17:13;;;;;;;63.33;6.40;;;;;;;;;;5001368;28;20029;-55
2023/05/29 14:19:39;;;;;;;86.68;8.13;;;;;;;;;;5004956;28;20341;-55
2023/05/29 14:22:04;;;;;;;57.80;6.23;;;;;;;;;;5002197;28;20121;-52
2023/05/29 14:24:29;;;;;;;71.20;7.03;;;;;;;;;;5004361;28;20289;-55
2023/05/29 14:26:55;;;;;;;97.40;9.75;;;;;;;;;;4999922;28;20723;-60
2023/05/29 14:29:20;;;;;;;56.28;6.38;;;;;;;;;;5002772;28;20105;-53
2023/05/29 14:31:45;;;;;;;81.40;7.90;;;;;;;;;;5001456;28;20057;-54
2023/05/29 14:34:11;;;;;;;68.75;6.95;;;;;;;;;;5004964;28;20030;-53
2023/05/29 14:36:36;;;;;;;66.70;6.75;;;;;;;;;;5002562;28;20025;-53
2023/05/29 14:39:02;;;;;;;112.97;10.38;;;;;;;;;;5001158;28;20041;-53
2023/05/29 14:41:28;;;;;;;63.25;6.85;;;;;;;;;;5003263;28;20655;-54
2023/05/29 14:43:53;;;;;;;108.80;9.70;;;;;;;;;;5002728;28;20111;-59
2023/05/29 14:46:18;;;;;;;62.95;6.22;;;;;;;;;;5002625;28;20901;-53
2023/05/29 14:48:44;;;;;;;76.20;7.25;;;;;;;;;;5003137;28;20035;-55
2023/05/29 14:51:09;;;;;;;76.95;8.13;;;;;;;;;;4998976;28;20026;-55
2023/05/29 14:53:35;;;;;;;62.60;6.60;;;;;;;;;;5003867;28;20033;-53
2023/05/29 14:56:00;;;;;;;109.15;10.30;;;;;;;;;;5000050;28;20562;-54
2023/05/29 14:58:25;;;;;;;69.15;6.90;;;;;;;;;;5004974;28;20024;-53
2023/05/29 15:00:51;;;;;;;101.17;9.53;;;;;;;;;;5000153;28;20053;-52
2023/05/29 15:03:16;;;;;;;54.75;6.13;;;;;;;;;;5003211;28;20471;-53
2023/05/29 15:05:42;;;;;;;75.35;7.53;;;;;;;;;;5001705;28;20113;-52
2023/05/29 15:08:07;;;;;;;78.72;7.63;;;;;;;;;;5001923;28;20021;-55
2023/05/29 15:10:32;;;;;;;67.05;7.18;;;;;;;;;;5001924;28;20737;-56
2023/05/29 15:12:58;;;;;;;95.18;9.43;;;;;;;;;;5002435;28;20532;-54
2023/05/29 15:15:27;;;;;;;80.35;7.63;;;;;;;;;;5008876;28;20040;-54
2023/05/29 15:17:55;;;;;;;105.38;10.07;;;;;;;;;;5000464;28;20025;-54
2023/05/29 15:20:21;;;;;;;69.28;7.13;;;;;;;;;;5003070;28;20032;-55
2023/05/29 15:22:47;;;;;;;68.65;7.07;;;;;;;;;;5003993;28;20021;-54
2023/05/29 15:25:13;;;;;;;62.58;6.63;;;;;;;;;;5002557;28;20064;-54
2023/05/29 15:27:38;;;;;;;57.72;6.32;;;;;;;;;;5003068;28;20112;-52
2023/05/29 15:30:10;;;;;;;115.30;11.33;;;;;;;;;;5002730;28;20083;-52
2023/05/29 15:32:35;;;;;;;44.90;5.25;;;;;;;;;;5002619;28;20465;-52
2023/05/29 15:35:01;;;;;;;83.30;8.73;;;;;;;;;;5000906;28;20022;-54
2023/05/29 15:37:26;;;;;;;46.40;5.20;;;;;;;;;;5002534;28;20658;-50
2023/05/29 15:39:51;;;;;;;72.45;7.43;;;;;;;;;;5001825;28;20052;-55
2023/05/29 15:42:16;;;;;;;56.83;6.50;;;;;;;;;;5002902;28;20052;-52
2023/05/29 15:44:42;;;;;;;56.45;6.32;;;;;;;;;;5000451;28;20075;-53
2023/05/29 15:47:07;;;;;;;85.87;8.80;;;;;;;;;;5000959;28;20025;-51
2023/05/29 15:49:33;;;;;;;57.30;5.95;;;;;;;;;;5001261;28;20079;-51
2023/05/29 15:51:58;;;;;;;89.07;8.98;;;;;;;;;;4998878;28;20030;-56
2023/05/29 15:54:23;;;;;;;54.92;6.00;;;;;;;;;;5004820;28;20021;-53
2023/05/29 15:56:48;;;;;;;59.23;6.17;;;;;;;;;;5000719;28;20041;-54
2023/05/29 15:59:14;;;;;;;48.20;5.63;;;;;;;;;;5001864;28;20097;-51
2023/05/29 16:01:39;;;;;;;47.42;5.85;;;;;;;;;;5002192;28;20048;-52
2023/05/29 16:04:06;;;;;;;98.87;9.97;;;;;;;;;;5000652;28;20022;-52
2023/05/29 16:06:32;;;;;;;46.50;5.60;;;;;;;;;;5001043;28;20771;-51
2023/05/29 16:08:57;;;;;;;100.50;10.15;;;;;;;;;;5001354;28;20542;-51
2023/05/29 16:11:22;;;;;;;43.03;5.28;;;;;;;;;;5000470;28;20495;-52
2023/05/29 16:13:47;;;;;;;41.63;5.07;;;;;;;;;;5004114;28;20672;-51
2023/05/29 16:16:13;;;;;;;57.90;6.40;;;;;;;;;;5001337;28;20268;-53
2023/05/29 16:18:38;;;;;;;49.40;5.95;;;;;;;;;;5002615;28;20772;-52
2023/05/29 16:21:03;;;;;;;89.43;9.20;;;;;;;;;;4999142;28;20072;-51
2023/05/29 16:23:28;;;;;;;43.67;5.53;;;;;;;;;;5002871;28;20034;-51
2023/05/29 16:25:54;;;;;;;67.30;7.68;;;;;;;;;;4999951;28;20030;-51
2023/05/29 16:28:19;;;;;;;50.23;5.97;;;;;;;;;;5002514;28;20093;-51
2023/05/29 16:30:45;;;;;;;51.47;5.85;;;;;;;;;;5003124;28;20280;-53
2023/05/29 16:33:12;;;;;;;81.40;8.23;;;;;;;;;;4998091;28;20068;-51
2023/05/29 16:35:37;;;;;;;62.80;6.78;;;;;;;;;;5003147;28;20491;-52
2023/05/29 16:38:02;;;;;;;90.87;9.70;;;;;;;;;;5001701;28;20031;-54
2023/05/29 16:40:27;;;;;;;41.30;5.25;;;;;;;;;;5001794;28;21015;-53
2023/05/29 16:42:53;;;;;;;55.13;6.35;;;;;;;;;;5001535;28;20033;-55
2023/05/29 16:45:18;;;;;;;51.17;5.93;;;;;;;;;;5001782;28;20030;-57
2023/05/29 16:47:43;;;;;;;55.60;6.13;;;;;;;;;;5009351;28;20272;-55
2023/05/29 16:50:09;;;;;;;84.57;9.07;;;;;;;;;;5005343;28;20402;-61
2023/05/29 16:52:34;;;;;;;51.75;5.72;;;;;;;;;;5006566;28;20041;-53
2023/05/29 16:55:01;;;;;;;107.55;10.15;;;;;;;;;;5005089;28;20140;-52
2023/05/29 16:57:28;;;;;;;48.10;5.78;;;;;;;;;;5004760;28;20188;-55
2023/05/29 16:59:53;;;;;;;60.15;6.68;;;;;;;;;;5004042;28;20033;-53
2023/05/29 17:02:19;;;;;;;41.53;5.57;;;;;;;;;;5007352;28;20025;-55
2023/05/29 17:04:45;;;;;;;53.15;6.15;;;;;;;;;;5004636;28;20551;-55
2023/05/29 17:07:10;;;;;;;95.55;10.30;;;;;;;;;;5002497;28;20056;-54
2023/05/29 17:09:35;;;;;;;43.17;5.40;;;;;;;;;;5005704;28;20021;-53
2023/05/29 17:12:02;;;;;;;92.10;9.73;;;;;;;;;;5002472;28;20264;-53
2023/05/29 17:14:28;;;;;;;65.38;6.97;;;;;;;;;;5007580;28;20017;-56
2023/05/29 17:16:53;;;;;;;55.15;6.22;;;;;;;;;;5004350;28;20096;-55
2023/05/29 17:19:18;;;;;;;50.00;5.87;;;;;;;;;;5003976;28;20053;-52
2023/05/29 17:21:45;;;;;;;59.60;6.50;;;;;;;;;;5003591;28;20080;-51
2023/05/29 17:24:10;;;;;;;105.93;10.35;;;;;;;;;;5003506;28;20285;-53
2023/05/29 17:26:35;;;;;;;49.60;6.10;;;;;;;;;;5004478;28;20142;-51
2023/05/29 17:29:00;;;;;;;101.63;10.50;;;;;;;;;;5005072;28;20022;-52
2023/05/29 17:31:26;;;;;;;41.67;7.10;;;;;;;;;;5006171;28;20603;-52
2023/05/29 17:33:51;;;;;;;64.60;9.67;;;;;;;;;;5003892;28;20275;-57
2023/05/29 17:36:16;;;;;;;62.53;7.93;;;;;;;;;;5004002;28;20778;-53
2023/05/29 17:38:41;;;;;;;51.03;7.88;;;;;;;;;;5005014;28;20430;-53
2023/05/29 17:41:07;;;;;;;117.28;12.57;;;;;;;;;;5003692;28;20029;-54
2023/05/29 17:43:32;;;;;;;54.10;7.22;;;;;;;;;;5006240;28;20045;-54
2023/05/29 17:45:58;;;;;;;57.35;6.55;;;;;;;;;;5001686;28;20138;-55
2023/05/29 17:48:24;;;;;;;49.75;6.05;;;;;;;;;;5005752;28;20428;-54
2023/05/29 17:50:49;;;;;;;55.10;6.20;;;;;;;;;;5004011;28;20029;-54
2023/05/29 17:53:14;;;;;;;125.00;11.57;;;;;;;;;;5004103;28;20028;-55
2023/05/29 17:55:40;;;;;;;57.33;6.30;;;;;;;;;;5004466;28;20045;-54
2023/05/29 17:58:07;;;;;;;102.77;9.13;;;;;;;;;;5002433;28;20498;-53
2023/05/29 18:00:32;;;;;;;60.15;6.03;;;;;;;;;;5003845;28;20298;-53
2023/05/29 18:02:58;;;;;;;59.80;6.47;;;;;;;;;;5001853;28;20026;-53
2023/05/29 18:05:23;;;;;;;65.20;6.73;;;;;;;;;;5004725;28;20033;-53
2023/05/29 18:07:48;;;;;;;59.30;6.20;;;;;;;;;;5003935;28;20288;-53
2023/05/29 18:10:20;;;;;;;99.40;9.57;;;;;;;;;;5001432;28;20903;-55
2023/05/29 18:12:45;;;;;;;85.03;8.00;;;;;;;;;;5003153;28;20371;-52
2023/05/29 18:15:11;;;;;;;125.85;11.63;;;;;;;;;;5004442;28;20029;-53
2023/05/29 18:17:36;;;;;;;68.85;6.90;;;;;;;;;;5005107;28;20042;-55
2023/05/29 18:20:02;;;;;;;103.63;9.40;;;;;;;;;;5002213;28;20029;-55
2023/05/29 18:22:27;;;;;;;66.18;7.05;;;;;;;;;;5003670;28;20040;-54
2023/05/29 18:24:52;;;;;;;91.87;8.87;;;;;;;;;;5003762;28;20021;-57
2023/05/29 18:27:18;;;;;;;72.25;7.53;;;;;;;;;;5001092;28;21305;-54
2023/05/29 18:29:43;;;;;;;74.87;7.40;;;;;;;;;;5005803;28;20021;-58
2023/05/29 18:32:08;;;;;;;122.93;11.02;;;;;;;;;;5002609;28;20273;-58
2023/05/29 18:34:34;;;;;;;71.07;7.55;;;;;;;;;;5004544;28;20076;-56
2023/05/29 18:36:59;;;;;;;49.92;5.68;;;;;;;;;;5002559;28;20614;-53
2023/05/29 18:39:25;;;;;;;97.45;8.88;;;;;;;;;;5005823;28;20823;-55
2023/05/29 18:41:50;;;;;;;64.10;6.80;;;;;;;;;;5005215;28;20042;-56
2023/05/29 18:44:15;;;;;;;128.60;11.77;;;;;;;;;;5003997;28;20088;-54
2023/05/29 18:46:41;;;;;;;74.03;7.03;;;;;;;;;;5005183;28;20037;-52
2023/05/29 18:49:06;;;;;;;125.22;11.98;;;;;;;;;;5003391;28;20829;-53
2023/05/29 18:51:32;;;;;;;73.50;7.50;;;;;;;;;;5002649;28;20119;-55
2023/05/29 18:53:58;;;;;;;65.68;6.60;;;;;;;;;;5004152;28;20264;-55
2023/05/29 18:56:24;;;;;;;66.38;7.00;;;;;;;;;;5002728;28;20097;-55
2023/05/29 18:58:50;;;;;;;73.55;7.28;;;;;;;;;;5003031;28;20025;-52
2023/05/29 19:01:15;;;;;;;120.30;10.10;;;;;;;;;;5000275;28;20041;-57
2023/05/29 19:03:40;;;;;;;76.38;7.90;;;;;;;;;;5003769;28;20748;-54
2023/05/29 19:06:06;;;;;;;112.37;10.67;;;;;;;;;;5001020;28;20038;-56
2023/05/29 19:08:32;;;;;;;65.68;6.72;;;;;;;;;;5002692;28;20114;-54
2023/05/29 19:10:57;;;;;;;84.03;7.57;;;;;;;;;;5000925;28;21239;-53
2023/05/29 19:13:22;;;;;;;71.30;7.30;;;;;;;;;;5004426;28;20033;-55
2023/05/29 19:15:47;;;;;;;61.17;6.67;;;;;;;;;;5004055;28;20316;-55
2023/05/29 19:18:12;;;;;;;134.17;12.07;;;;;;;;;;5001643;28;20265;-55
2023/05/29 19:20:38;;;;;;;64.75;6.55;;;;;;;;;;5002637;28;20265;-54
2023/05/29 19:23:04;;;;;;;72.97;7.40;;;;;;;;;;5003307;28;20022;-54
2023/05/29 19:25:29;;;;;;;73.47;7.40;;;;;;;;;;5003123;28;20543;-53
2023/05/29 19:27:55;;;;;;;75.97;7.63;;;;;;;;;;5002275;28;20017;-56
2023/05/29 19:30:21;;;;;;;136.75;11.02;;;;;;;;;;5000367;28;20377;-52
2023/05/29 19:32:46;;;;;;;74.38;7.38;;;;;;;;;;5004329;28;20083;-55
2023/05/29 19:35:11;;;;;;;124.67;10.97;;;;;;;;;;5001588;28;20018;-55
2023/05/29 19:37:36;;;;;;;76.63;7.60;;;;;;;;;;5001018;28;20253;-56
2023/05/29 19:40:02;;;;;;;81.27;7.50;;;;;;;;;;5002090;28;20018;-53
2023/05/29 19:42:28;;;;;;;68.63;6.82;;;;;;;;;;5000511;28;20273;-54
2023/05/29 19:44:55;;;;;;;85.45;7.78;;;;;;;;;;5003558;28;20033;-55
2023/05/29 19:47:20;;;;;;;126.60;11.40;;;;;;;;;;5001822;28;20574;-56
2023/05/29 19:49:45;;;;;;;93.13;8.52;;;;;;;;;;5002313;28;20024;-53
2023/05/29 19:52:11;;;;;;;104.65;9.68;;;;;;;;;;5002133;28;20092;-54
2023/05/29 19:54:36;;;;;;;76.53;7.47;;;;;;;;;;5003301;28;20029;-53
2023/05/29 19:57:05;;;;;;;76.80;7.55;;;;;;;;;;5000846;28;20895;-53
2023/05/29 19:59:31;;;;;;;68.57;7.28;;;;;;;;;;5003292;28;20022;-53
2023/05/29 20:01:57;;;;;;;82.07;7.65;;;;;;;;;;5001701;28;20049;-53
2023/05/29 20:04:22;;;;;;;131.50;11.30;;;;;;;;;;5000782;28;20021;-52
2023/05/29 20:06:48;;;;;;;74.50;7.32;;;;;;;;;;5001163;28;20172;-52
2023/05/29 20:09:16;;;;;;;154.50;12.53;;;;;;;;;;5000420;28;20020;-55
2023/05/29 20:11:41;;;;;;;74.28;7.32;;;;;;;;;;5000776;28;20363;-55
2023/05/29 20:14:08;;;;;;;86.72;7.63;;;;;;;;;;5000581;28;20026;-55
2023/05/29 20:16:33;;;;;;;78.22;7.45;;;;;;;;;;5001800;28;20030;-58
2023/05/29 20:18:58;;;;;;;77.07;7.10;;;;;;;;;;5001578;28;20029;-55
2023/05/29 20:21:25;;;;;;;135.27;11.43;;;;;;;;;;5001527;28;20033;-55
2023/05/29 20:23:50;;;;;;;76.50;7.25;;;;;;;;;;5002362;28;20037;-56
2023/05/29 20:26:15;;;;;;;119.53;10.93;;;;;;;;;;5001707;28;20079;-53
2023/05/29 20:28:41;;;;;;;97.50;8.63;;;;;;;;;;5001380;28;20272;-55
2023/05/29 20:31:06;;;;;;;66.40;6.97;;;;;;;;;;5000326;28;20030;-56
2023/05/29 20:33:31;;;;;;;66.87;6.97;;;;;;;;;;5000272;28;20481;-56
2023/05/29 20:35:58;;;;;;;80.67;7.43;;;;;;;;;;5001231;28;20419;-54
2023/05/29 20:38:23;;;;;;;128.40;11.45;;;;;;;;;;5001490;28;20828;-54
2023/05/29 20:40:51;;;;;;;73.53;7.50;;;;;;;;;;5000988;28;20037;-56
2023/05/29 20:43:20;;;;;;;129.70;11.45;;;;;;;;;;5002192;28;20009;-56
2023/05/29 20:45:48;;;;;;;53.05;6.07;;;;;;;;;;5003614;28;20045;-54
2023/05/29 20:48:14;;;;;;;119.68;10.75;;;;;;;;;;4999886;28;20029;-53
2023/05/29 20:50:39;;;;;;;49.23;5.90;;;;;;;;;;5000734;28;20034;-54
2023/05/29 20:53:04;;;;;;;53.38;6.85;;;;;;;;;;5001909;28;20268;-54
2023/05/29 20:55:30;;;;;;;63.37;7.53;;;;;;;;;;4999432;28;20084;-53
2023/05/29 20:57:56;;;;;;;46.87;5.73;;;;;;;;;;5001674;28;20260;-52
2023/05/29 21:00:22;;;;;;;104.45;9.60;;;;;;;;;;4998979;28;20029;-54
2023/05/29 21:02:47;;;;;;;53.65;5.93;;;;;;;;;;5003005;28;20056;-59
2023/05/29 21:05:12;;;;;;;86.27;8.53;;;;;;;;;;5000173;28;20026;-54
2023/05/29 21:07:37;;;;;;;63.37;6.50;;;;;;;;;;5001166;28;20731;-55
2023/05/29 21:10:03;;;;;;;56.75;6.55;;;;;;;;;;5001157;28;20651;-53
2023/05/29 21:12:28;;;;;;;43.13;5.38;;;;;;;;;;5000511;28;20116;-53
2023/05/29 21:14:54;;;;;;;61.57;6.70;;;;;;;;;;5003259;28;20027;-53
2023/05/29 21:17:19;;;;;;;96.93;9.48;;;;;;;;;;5002698;28;20380;-53
2023/05/29 21:19:45;;;;;;;61.60;6.80;;;;;;;;;;5003217;28;20057;-53
2023/05/29 21:22:10;;;;;;;47.38;5.75;;;;;;;;;;5000928;28;20030;-53
2023/05/29 21:24:35;;;;;;;37.85;5.53;;;;;;;;;;5000750;28;20530;-54
2023/05/29 21:27:02;;;;;;;70.88;7.15;;;;;;;;;;5000407;28;20041;-54
2023/05/29 21:29:27;;;;;;;87.05;8.63;;;;;;;;;;5000289;28;20033;-53
2023/05/29 21:31:52;;;;;;;54.75;6.07;;;;;;;;;;5004166;28;20053;-54
2023/05/29 21:37:27;;;;;;;151.45;12.90;;;;;;;;;;5000421;28;20111;-55
2023/05/29 21:39:52;;;;;;;100.78;8.63;;;;;;;;;;5003780;28;20045;-52
2023/05/29 21:42:18;;;;;;;133.20;11.97;;;;;;;;;;5004757;28;20037;-55
2023/05/29 21:44:43;;;;;;;61.90;7.25;;;;;;;;;;5004420;28;20293;-55
2023/05/29 21:47:09;;;;;;;71.10;6.80;;;;;;;;;;5004110;28;20034;-56
2023/05/29 21:49:34;;;;;;;88.97;8.20;;;;;;;;;;5002646;28;20026;-54
2023/05/29 21:52:00;;;;;;;89.50;8.13;;;;;;;;;;5006052;28;20075;-56
2023/05/29 21:54:25;;;;;;;107.27;8.83;;;;;;;;;;5003710;28;20102;-55
2023/05/29 21:56:50;;;;;;;85.40;8.03;;;;;;;;;;5002100;28;20119;-54
2023/05/29 21:59:15;;;;;;;92.83;8.73;;;;;;;;;;5003817;28;20261;-52
2023/05/29 22:01:42;;;;;;;87.82;8.18;;;;;;;;;;5003657;28;20284;-55
2023/05/29 22:07:10;;;;;;;64.90;6.63;;;;;;;;;;5005501;28;20092;-53
2023/05/29 22:09:35;;;;;;;67.47;6.73;;;;;;;;;;5004730;28;20026;-56
2023/05/29 22:12:02;;;;;;;93.50;8.27;;;;;;;;;;5002972;28;20277;-55
2023/05/29 22:14:49;;;;;;;124.40;11.20;;;;;;;;;;5004579;28;20270;-53
2023/05/29 22:17:14;;;;;;;91.88;8.43;;;;;;;;;;5003453;28;20672;-54
2023/05/29 22:19:39;;;;;;;80.65;7.72;;;;;;;;;;5003296;28;20025;-58
2023/05/29 22:22:05;;;;;;;98.60;8.93;;;;;;;;;;5003548;28;20469;-54
2023/05/29 22:24:31;;;;;;;102.50;9.13;;;;;;;;;;5004850;28;20370;-53
2023/05/29 22:26:56;;;;;;;95.38;8.82;;;;;;;;;;5002482;28;20268;-54
2023/05/29 22:29:22;;;;;;;140.90;11.97;;;;;;;;;;5003246;28;20010;-55
2023/05/29 22:31:49;;;;;;;92.93;8.45;;;;;;;;;;5004812;28;20296;-54
2023/05/29 22:34:15;;;;;;;86.50;8.13;;;;;;;;;;5000710;28;20895;-53
2023/05/29 22:36:40;;;;;;;117.07;9.73;;;;;;;;;;5000583;28;20818;-53
2023/05/29 22:39:05;;;;;;;101.95;8.80;;;;;;;;;;4999452;28;20681;-54
2023/05/29 22:41:31;;;;;;;175.57;13.93;;;;;;;;;;4999654;28;20176;-54
2023/05/29 22:43:56;;;;;;;84.30;8.63;;;;;;;;;;5000072;28;20302;-55
2023/05/29 22:46:23;;;;;;;142.73;12.23;;;;;;;;;;4997886;28;20269;-55
2023/05/29 22:48:48;;;;;;;107.53;9.57;;;;;;;;;;4999864;28;20257;-56
2023/05/29 22:51:13;;;;;;;84.20;7.93;;;;;;;;;;4998778;28;20029;-53